createdAt,value
2023-04-22T00:00:16.086Z,10.26
2023-04-22T00:01:16.088Z,11.23
2023-04-22T00:02:16.109Z,12.84
2023-04-22T00:03:16.302Z,10.59
2023-04-22T00:04:16.269Z,11.23
2023-04-22T00:05:18.574Z,10.59
2023-04-22T00:06:16.040Z,10.26
2023-04-22T00:07:16.009Z,8.97
2023-04-22T00:08:16.008Z,11.23
2023-04-22T00:09:15.980Z,11.23
2023-04-22T00:10:15.983Z,8.97
2023-04-22T00:11:15.994Z,10.91
2023-04-22T00:12:15.957Z,10.59
2023-04-22T00:13:15.950Z,11.23
2023-04-22T00:14:15.942Z,11.55
2023-04-22T00:15:15.923Z,11.87
2023-04-22T00:16:15.983Z,7.69
2023-04-22T00:17:15.902Z,11.55
2023-04-22T00:18:15.908Z,11.55
2023-04-22T00:19:15.902Z,12.84
2023-04-22T00:20:15.877Z,12.84
2023-04-22T00:21:16.419Z,9.30
2023-04-22T00:22:15.874Z,13.49
2023-04-22T00:23:15.873Z,10.26
2023-04-22T00:24:15.830Z,9.62
2023-04-22T00:25:15.820Z,11.55
2023-04-22T00:26:15.855Z,10.59
2023-04-22T00:27:15.803Z,13.16
2023-04-22T00:28:15.792Z,11.55
2023-04-22T00:29:15.782Z,13.16
2023-04-22T00:30:15.797Z,10.91
2023-04-22T00:31:15.845Z,9.94
2023-04-22T00:32:15.751Z,10.26
2023-04-22T00:33:15.746Z,13.16
2023-04-22T00:34:15.725Z,10.59
2023-04-22T00:35:15.731Z,11.55
2023-04-22T00:36:15.730Z,12.84
2023-04-22T00:37:15.689Z,13.81
2023-04-22T00:38:15.685Z,9.62
2023-04-22T00:39:15.743Z,10.59
2023-04-22T00:40:15.683Z,11.23
2023-04-22T00:41:15.677Z,10.59
2023-04-22T00:42:15.641Z,11.23
2023-04-22T00:43:15.631Z,7.69
2023-04-22T00:44:15.629Z,8.33
2023-04-22T00:45:15.618Z,10.91
2023-04-22T00:46:15.642Z,10.59
2023-04-22T00:47:15.738Z,11.55
2023-04-22T00:48:15.582Z,8.01
2023-04-22T00:49:15.572Z,10.59
2023-04-22T00:50:15.598Z,11.87
2023-04-22T00:51:15.580Z,13.49
2023-04-22T00:52:15.538Z,9.30
2023-04-22T00:53:15.522Z,11.55
2023-04-22T00:54:15.523Z,8.65
2023-04-22T00:55:15.493Z,13.81
2023-04-22T00:56:15.520Z,8.33
2023-04-22T00:57:15.489Z,11.23
2023-04-22T00:58:15.468Z,10.59
2023-04-22T00:59:15.461Z,10.91
2023-04-22T01:00:15.480Z,10.59
2023-04-22T01:01:15.474Z,6.72
2023-04-22T01:02:15.464Z,11.23
2023-04-22T01:03:15.511Z,11.55
2023-04-22T01:04:15.531Z,11.87
2023-04-22T01:05:15.388Z,13.81
2023-04-22T01:06:15.418Z,10.91
2023-04-22T01:07:15.369Z,11.23
2023-04-22T01:08:15.369Z,10.91
2023-04-22T01:09:15.358Z,10.91
2023-04-22T01:10:15.357Z,9.30
2023-04-22T01:11:15.359Z,10.26
2023-04-22T01:12:15.341Z,10.59
2023-04-22T01:13:15.316Z,10.59
2023-04-22T01:14:15.309Z,9.62
2023-04-22T01:15:15.291Z,11.87
2023-04-22T01:16:15.389Z,10.59
2023-04-22T01:17:15.281Z,9.30
2023-04-22T01:18:15.268Z,8.65
2023-04-22T01:19:15.263Z,12.52
2023-04-22T01:20:15.251Z,10.26
2023-04-22T01:21:15.245Z,9.94
2023-04-22T01:22:15.242Z,9.94
2023-04-22T01:23:15.223Z,7.69
2023-04-22T01:24:15.207Z,11.23
2023-04-22T01:25:15.187Z,8.97
2023-04-22T01:26:15.500Z,9.62
2023-04-22T01:27:15.172Z,7.69
2023-04-22T01:28:15.165Z,10.26
2023-04-22T01:32:34.587Z,10.26
2023-04-22T01:33:35.571Z,8.33
2023-04-22T01:34:35.577Z,10.26
2023-04-22T01:35:35.591Z,12.20
2023-04-22T01:36:35.545Z,12.84
2023-04-22T01:37:35.528Z,9.62
2023-04-22T01:38:35.519Z,8.97
2023-04-22T01:39:35.521Z,7.36
2023-04-22T01:40:35.525Z,9.62
2023-04-22T01:41:35.501Z,5.43
2023-04-22T01:42:35.476Z,9.30
2023-04-22T01:43:35.462Z,9.30
2023-04-22T01:44:35.449Z,9.30
2023-04-22T01:45:35.510Z,10.59
2023-04-22T01:46:35.800Z,12.20
2023-04-22T01:47:35.469Z,9.30
2023-04-22T01:48:35.424Z,8.97
2023-04-22T01:49:35.427Z,9.94
2023-04-22T01:50:35.388Z,8.65
2023-04-22T01:51:35.428Z,7.36
2023-04-22T01:52:35.359Z,8.97
2023-04-22T01:53:35.354Z,7.04
2023-04-22T01:54:35.337Z,12.20
2023-04-22T01:55:35.350Z,11.87
2023-04-22T01:56:35.358Z,8.97
2023-04-22T01:57:35.316Z,7.04
2023-04-22T01:58:35.314Z,9.94
2023-04-22T01:59:35.290Z,9.30
2023-04-22T02:00:35.270Z,9.30
2023-04-22T02:01:35.355Z,9.62
2023-04-22T02:02:35.340Z,9.94
2023-04-22T02:03:35.307Z,7.36
2023-04-22T02:04:35.255Z,10.91
2023-04-22T02:05:35.234Z,8.97
2023-04-22T02:06:35.232Z,9.62
2023-04-22T02:07:35.205Z,8.97
2023-04-22T02:08:35.232Z,6.40
2023-04-22T02:09:35.188Z,12.52
2023-04-22T02:10:35.176Z,10.91
2023-04-22T02:11:35.209Z,6.72
2023-04-22T02:12:35.150Z,9.62
2023-04-22T02:13:35.142Z,10.26
2023-04-22T02:14:35.141Z,8.97
2023-04-22T02:15:35.154Z,9.30
2023-04-22T02:16:35.119Z,9.30
2023-04-22T02:17:35.100Z,9.62
2023-04-22T02:18:35.103Z,8.97
2023-04-22T02:19:35.118Z,9.62
2023-04-22T02:20:35.084Z,9.62
2023-04-22T02:21:35.072Z,9.62
2023-04-22T02:22:35.047Z,8.65
2023-04-22T02:23:35.031Z,9.62
2023-04-22T02:24:35.020Z,12.20
2023-04-22T02:25:35.016Z,8.65
2023-04-22T02:26:35.019Z,10.91
2023-04-22T02:27:34.988Z,7.69
2023-04-22T02:28:34.990Z,8.97
2023-04-22T02:29:34.966Z,9.94
2023-04-22T02:30:34.949Z,7.36
2023-04-22T02:31:35.048Z,8.97
2023-04-22T02:32:34.955Z,7.36
2023-04-22T02:33:34.937Z,8.97
2023-04-22T02:34:34.910Z,8.97
2023-04-22T02:35:34.906Z,9.62
2023-04-22T02:36:34.906Z,11.87
2023-04-22T02:37:34.880Z,9.62
2023-04-22T02:38:34.866Z,9.30
2023-04-22T02:39:34.868Z,9.30
2023-04-22T02:40:34.845Z,10.59
2023-04-22T02:41:34.861Z,9.62
2023-04-22T02:42:34.929Z,7.69
2023-04-22T02:43:34.828Z,8.33
2023-04-22T02:44:34.817Z,9.30
2023-04-22T02:45:34.794Z,14.78
2023-04-22T02:46:34.857Z,14.45
2023-04-22T02:47:34.801Z,7.69
2023-04-22T02:48:34.762Z,9.94
2023-04-22T02:49:34.758Z,8.97
2023-04-22T02:50:34.733Z,14.13
2023-04-22T02:51:34.753Z,4.46
2023-04-22T02:52:34.731Z,6.72
2023-04-22T02:53:34.709Z,5.43
2023-04-22T02:54:34.705Z,9.30
2023-04-22T02:55:34.714Z,13.81
2023-04-22T02:56:34.709Z,11.55
2023-04-22T02:57:34.675Z,9.30
2023-04-22T02:58:34.654Z,6.40
2023-04-22T02:59:34.650Z,8.97
2023-04-22T03:00:34.695Z,9.62
2023-04-22T03:01:34.710Z,10.91
2023-04-22T03:02:34.721Z,8.65
2023-04-22T03:03:34.705Z,8.97
2023-04-22T03:04:34.617Z,8.97
2023-04-22T03:05:34.596Z,6.07
2023-04-22T03:06:34.578Z,9.62
2023-04-22T03:07:34.590Z,13.81
2023-04-22T03:08:34.552Z,8.97
2023-04-22T03:09:34.531Z,7.36
2023-04-22T03:10:55.533Z,8.33
2023-04-22T03:11:34.536Z,8.97
2023-04-22T03:12:34.506Z,11.55
2023-04-22T03:13:34.498Z,5.11
2023-04-22T03:14:34.557Z,6.40
2023-04-22T03:15:34.466Z,7.04
2023-04-22T03:16:34.517Z,9.30
2023-04-22T03:17:34.490Z,5.11
2023-04-22T03:18:34.440Z,9.62
2023-04-22T03:19:34.420Z,9.62
2023-04-22T03:20:34.446Z,10.91
2023-04-22T03:21:34.441Z,9.62
2023-04-22T03:22:34.410Z,8.33
2023-04-22T03:23:34.386Z,9.62
2023-04-22T03:24:34.398Z,7.04
2023-04-22T03:25:34.418Z,7.36
2023-04-22T03:26:34.317Z,12.52
2023-04-22T03:27:34.369Z,12.52
2023-04-22T03:28:34.360Z,9.30
2023-04-22T03:29:34.316Z,6.40
2023-04-22T03:30:34.323Z,11.55
2023-04-22T03:31:34.367Z,11.23
2023-04-22T03:32:34.344Z,8.97
2023-04-22T03:33:34.232Z,9.62
2023-04-22T03:34:35.826Z,5.43
2023-04-22T03:35:34.209Z,8.01
2023-04-22T03:36:34.214Z,8.65
2023-04-22T03:37:34.235Z,10.59
2023-04-22T03:38:34.247Z,8.33
2023-04-22T03:39:34.211Z,11.87
2023-04-22T03:40:34.212Z,6.40
2023-04-22T03:41:34.287Z,8.65
2023-04-22T03:42:34.186Z,9.30
2023-04-22T03:43:34.164Z,9.30
2023-04-22T03:44:34.154Z,8.33
2023-04-22T03:45:34.156Z,7.69
2023-04-22T03:46:34.306Z,13.81
2023-04-22T03:47:34.134Z,9.30
2023-04-22T03:48:34.124Z,6.07
2023-04-22T03:49:34.060Z,8.65
2023-04-22T03:50:34.046Z,9.30
2023-04-22T03:51:34.055Z,9.94
2023-04-22T03:52:34.032Z,8.33
2023-04-22T03:53:34.002Z,6.40
2023-04-22T03:54:34.013Z,8.33
2023-04-22T03:55:33.982Z,9.30
2023-04-22T03:56:34.010Z,8.01
2023-04-22T03:57:33.975Z,9.30
2023-04-22T03:58:33.958Z,8.01
2023-04-22T03:59:33.946Z,7.36
2023-04-22T04:00:33.950Z,11.55
2023-04-22T04:01:33.933Z,9.62
2023-04-22T04:02:34.032Z,10.26
2023-04-22T04:03:34.327Z,8.97
2023-04-22T04:04:34.277Z,11.87
2023-04-22T04:05:33.909Z,7.36
2023-04-22T04:06:33.909Z,9.30
2023-04-22T04:07:33.850Z,9.30
2023-04-22T04:08:33.854Z,7.69
2023-04-22T04:09:33.830Z,9.62
2023-04-22T04:10:33.839Z,9.30
2023-04-22T04:11:33.853Z,9.30
2023-04-22T04:12:33.826Z,10.59
2023-04-22T04:13:33.794Z,6.72
2023-04-22T04:14:33.776Z,8.97
2023-04-22T04:15:33.880Z,5.43
2023-04-22T04:16:33.916Z,12.20
2023-04-22T04:17:33.782Z,9.30
2023-04-22T04:18:33.802Z,12.20
2023-04-22T04:19:33.729Z,6.72
2023-04-22T04:20:33.721Z,8.97
2023-04-22T04:21:33.741Z,9.30
2023-04-22T04:22:33.714Z,9.94
2023-04-22T04:23:33.694Z,9.62
2023-04-22T04:24:33.669Z,12.20
2023-04-22T04:25:33.681Z,6.72
2023-04-22T04:26:33.688Z,7.36
2023-04-22T04:27:33.648Z,8.01
2023-04-22T04:28:33.635Z,8.01
2023-04-22T04:29:33.621Z,6.72
2023-04-22T04:30:33.687Z,9.30
2023-04-22T04:31:33.686Z,9.62
2023-04-22T04:32:33.600Z,9.30
2023-04-22T04:33:33.576Z,8.97
2023-04-22T04:34:33.559Z,11.87
2023-04-22T04:35:33.554Z,9.30
2023-04-22T04:36:33.563Z,9.30
2023-04-22T04:37:33.535Z,8.65
2023-04-22T04:38:33.514Z,8.97
2023-04-22T04:39:33.524Z,7.36
2023-04-22T04:40:33.501Z,8.65
2023-04-22T04:41:33.527Z,9.30
2023-04-22T04:42:33.474Z,12.20
2023-04-22T04:43:33.480Z,7.36
2023-04-22T04:44:33.466Z,7.04
2023-04-22T04:45:33.446Z,8.97
2023-04-22T04:46:33.504Z,9.62
2023-04-22T04:47:33.438Z,7.69
2023-04-22T04:48:33.413Z,9.30
2023-04-22T04:49:33.398Z,5.11
2023-04-22T04:50:33.384Z,8.01
2023-04-22T04:51:33.407Z,8.65
2023-04-22T04:52:33.369Z,9.30
2023-04-22T04:53:33.365Z,6.72
2023-04-22T04:54:33.346Z,5.43
2023-04-22T04:55:33.379Z,9.30
2023-04-22T04:56:33.340Z,11.87
2023-04-22T04:57:33.312Z,7.69
2023-04-22T04:58:33.325Z,8.65
2023-04-22T04:59:33.293Z,7.36
2023-04-22T05:00:33.281Z,9.62
2023-04-22T05:01:33.435Z,10.59
2023-04-22T05:02:33.365Z,8.33
2023-04-22T05:03:33.395Z,6.40
2023-04-22T05:04:33.596Z,8.97
2023-04-22T05:05:33.227Z,9.30
2023-04-22T05:06:33.236Z,8.97
2023-04-22T05:07:33.272Z,9.30
2023-04-22T05:08:33.198Z,9.62
2023-04-22T05:09:33.221Z,6.07
2023-04-22T05:10:33.188Z,9.62
2023-04-22T05:11:33.193Z,7.69
2023-04-22T05:12:33.154Z,9.94
2023-04-22T05:13:33.194Z,8.97
2023-04-22T05:14:33.146Z,12.52
2023-04-22T05:15:33.129Z,9.62
2023-04-22T05:16:33.172Z,9.94
2023-04-22T05:17:33.123Z,8.65
2023-04-22T05:18:33.098Z,6.40
2023-04-22T05:19:33.102Z,9.30
2023-04-22T05:20:35.881Z,12.84
2023-04-22T05:21:33.101Z,9.94
2023-04-22T05:22:33.049Z,10.59
2023-04-22T05:23:33.065Z,8.97
2023-04-22T05:24:33.029Z,9.94
2023-04-22T05:25:33.031Z,8.65
2023-04-22T05:26:33.023Z,7.36
2023-04-22T05:27:33.027Z,8.01
2023-04-22T05:28:32.983Z,10.91
2023-04-22T05:29:32.988Z,10.26
2023-04-22T05:30:32.963Z,9.62
2023-04-22T05:31:33.007Z,9.62
2023-04-22T05:32:33.052Z,9.94
2023-04-22T05:33:32.940Z,10.26
2023-04-22T05:34:32.921Z,7.36
2023-04-22T05:35:32.983Z,10.91
2023-04-22T05:36:32.904Z,8.97
2023-04-22T05:37:32.906Z,8.33
2023-04-22T05:38:32.885Z,11.87
2023-04-22T05:39:32.928Z,11.87
2023-04-22T05:40:32.856Z,13.49
2023-04-22T05:41:32.854Z,10.59
2023-04-22T05:42:32.947Z,10.91
2023-04-22T05:43:32.835Z,10.59
2023-04-22T05:44:32.814Z,10.59
2023-04-22T05:45:32.884Z,10.91
2023-04-22T05:46:32.848Z,10.91
2023-04-22T05:47:32.826Z,10.26
2023-04-22T05:48:32.832Z,10.91
2023-04-22T05:49:32.770Z,7.04
2023-04-22T05:50:32.752Z,11.23
2023-04-22T05:51:32.797Z,10.91
2023-04-22T05:52:32.749Z,12.20
2023-04-22T05:53:32.724Z,10.59
2023-04-22T05:54:32.763Z,12.84
2023-04-22T05:55:32.718Z,11.23
2023-04-22T05:56:32.680Z,11.87
2023-04-22T05:57:32.798Z,10.26
2023-04-22T05:58:32.661Z,10.91
2023-04-22T05:59:32.660Z,10.59
2023-04-22T06:00:32.674Z,11.23
2023-04-22T06:01:32.639Z,11.23
2023-04-22T06:02:32.753Z,10.91
2023-04-22T06:03:32.854Z,11.23
2023-04-22T06:04:35.384Z,7.69
2023-04-22T06:05:32.630Z,11.23
2023-04-22T06:06:32.651Z,8.65
2023-04-22T06:07:32.769Z,9.62
2023-04-22T06:08:32.561Z,11.23
2023-04-22T06:09:32.572Z,8.65
2023-04-22T06:10:32.533Z,13.81
2023-04-22T06:11:32.529Z,11.23
2023-04-22T06:12:32.530Z,11.55
2023-04-22T06:13:32.528Z,10.91
2023-04-22T06:14:32.496Z,14.45
2023-04-22T06:15:32.529Z,11.23
2023-04-22T06:16:32.495Z,15.74
2023-04-22T06:17:32.508Z,11.55
2023-04-22T06:18:32.462Z,12.20
2023-04-22T06:19:32.463Z,13.16
2023-04-22T06:20:32.426Z,9.94
2023-04-22T06:21:32.417Z,11.87
2023-04-22T06:22:32.435Z,11.87
2023-04-22T06:23:32.403Z,12.20
2023-04-22T06:24:32.389Z,10.59
2023-04-22T06:25:32.412Z,11.87
2023-04-22T06:26:32.365Z,8.97
2023-04-22T06:27:32.374Z,14.78
2023-04-22T06:28:32.347Z,12.20
2023-04-22T06:29:32.347Z,9.94
2023-04-22T06:30:32.307Z,13.16
2023-04-22T06:31:32.402Z,12.52
2023-04-22T06:32:32.316Z,11.23
2023-04-22T06:33:32.304Z,10.91
2023-04-22T06:34:32.315Z,12.52
2023-04-22T06:35:32.268Z,14.13
2023-04-22T06:36:32.248Z,11.87
2023-04-22T06:37:32.342Z,14.13
2023-04-22T06:38:32.230Z,14.13
2023-04-22T06:39:32.236Z,10.59
2023-04-22T06:40:32.209Z,9.30
2023-04-22T06:41:32.206Z,12.84
2023-04-22T06:42:32.216Z,10.26
2023-04-22T06:43:32.183Z,12.20
2023-04-22T06:44:32.165Z,12.20
2023-04-22T06:45:32.162Z,12.52
2023-04-22T06:46:32.167Z,13.16
2023-04-22T06:47:32.227Z,15.42
2023-04-22T06:48:32.133Z,11.23
2023-04-22T06:49:32.118Z,12.52
2023-04-22T06:50:32.135Z,12.20
2023-04-22T06:51:32.103Z,12.52
2023-04-22T06:52:32.138Z,11.55
2023-04-22T06:53:32.078Z,9.94
2023-04-22T06:54:32.082Z,13.49
2023-04-22T06:55:32.085Z,12.84
2023-04-22T06:56:32.047Z,12.52
2023-04-22T06:57:32.057Z,12.84
2023-04-22T06:58:32.006Z,10.91
2023-04-22T06:59:32.017Z,16.06
2023-04-22T07:00:32.009Z,14.45
2023-04-22T07:01:32.023Z,12.84
2023-04-22T07:02:32.026Z,5.11
2023-04-22T07:03:32.163Z,11.23
2023-04-22T07:04:32.001Z,13.16
2023-04-22T07:05:31.958Z,13.49
2023-04-22T07:06:32.001Z,15.42
2023-04-22T07:07:31.944Z,10.91
2023-04-22T07:08:31.921Z,13.16
2023-04-22T07:09:31.974Z,15.10
2023-04-22T07:10:31.884Z,13.16
2023-04-22T07:11:31.894Z,8.97
2023-04-22T07:12:31.908Z,15.10
2023-04-22T07:13:31.858Z,14.13
2023-04-22T07:14:31.849Z,12.84
2023-04-22T07:15:31.887Z,13.16
2023-04-22T07:16:31.908Z,12.84
2023-04-22T07:17:31.867Z,13.81
2023-04-22T07:18:31.828Z,13.16
2023-04-22T07:19:33.269Z,13.49
2023-04-22T07:20:31.788Z,14.13
2023-04-22T07:21:31.811Z,15.74
2023-04-22T07:22:31.777Z,11.23
2023-04-22T07:23:31.749Z,11.87
2023-04-22T07:24:31.789Z,12.20
2023-04-22T07:25:31.727Z,14.13
2023-04-22T07:26:31.740Z,13.81
2023-04-22T07:27:31.815Z,14.13
2023-04-22T07:28:31.706Z,17.03
2023-04-22T07:29:31.696Z,16.71
2023-04-22T07:30:31.724Z,13.49
2023-04-22T07:31:31.670Z,15.10
2023-04-22T07:32:31.750Z,13.49
2023-04-22T07:33:31.640Z,15.42
2023-04-22T07:34:31.638Z,15.42
2023-04-22T07:35:31.641Z,15.42
2023-04-22T07:36:31.615Z,13.81
2023-04-22T07:37:31.669Z,17.03
2023-04-22T07:38:31.585Z,12.52
2023-04-22T07:39:31.581Z,16.06
2023-04-22T07:40:31.605Z,13.49
2023-04-22T07:41:31.562Z,18.96
2023-04-22T07:42:31.615Z,16.71
2023-04-22T07:43:31.550Z,16.71
2023-04-22T07:44:31.528Z,17.03
2023-04-22T07:45:31.564Z,20.90
2023-04-22T07:46:31.546Z,17.35
2023-04-22T07:47:31.533Z,16.39
2023-04-22T07:48:31.477Z,16.39
2023-04-22T07:49:31.501Z,14.78
2023-04-22T07:50:31.463Z,19.29
2023-04-22T07:51:31.458Z,17.03
2023-04-22T07:52:31.467Z,17.03
2023-04-22T07:53:31.444Z,17.03
2023-04-22T07:54:31.459Z,18.00
2023-04-22T07:55:31.412Z,17.35
2023-04-22T07:56:31.413Z,17.68
2023-04-22T07:57:31.425Z,13.49
2023-04-22T07:58:31.394Z,17.68
2023-04-22T07:59:31.402Z,17.35
2023-04-22T08:00:31.413Z,17.68
2023-04-22T08:01:31.355Z,16.06
2023-04-22T08:02:31.499Z,18.00
2023-04-22T08:03:31.539Z,17.35
2023-04-22T08:04:31.514Z,16.06
2023-04-22T08:05:31.328Z,17.35
2023-04-22T08:06:31.305Z,17.35
2023-04-22T08:07:33.505Z,19.29
2023-04-22T08:08:31.309Z,17.35
2023-04-22T08:09:31.290Z,17.68
2023-04-22T08:10:31.281Z,17.68
2023-04-22T08:11:31.258Z,18.00
2023-04-22T08:12:31.286Z,18.32
2023-04-22T08:13:31.238Z,17.68
2023-04-22T08:14:31.258Z,18.00
2023-04-22T08:15:31.217Z,15.42
2023-04-22T08:16:31.192Z,17.68
2023-04-22T08:17:31.264Z,18.64
2023-04-22T08:18:31.187Z,18.32
2023-04-22T08:19:31.172Z,16.39
2023-04-22T08:20:31.154Z,21.54
2023-04-22T08:21:31.159Z,18.96
2023-04-22T08:22:31.161Z,19.29
2023-04-22T08:23:31.136Z,18.00
2023-04-22T08:24:31.121Z,16.71
2023-04-22T08:25:31.110Z,18.64
2023-04-22T08:26:31.096Z,18.64
2023-04-22T08:27:31.096Z,18.64
2023-04-22T08:28:31.076Z,18.64
2023-04-22T08:29:31.065Z,18.00
2023-04-22T08:30:31.057Z,18.32
2023-04-22T08:31:31.083Z,19.61
2023-04-22T08:32:31.095Z,21.22
2023-04-22T08:33:31.067Z,18.64
2023-04-22T08:34:31.017Z,18.96
2023-04-22T08:35:31.010Z,18.00
2023-04-22T08:36:31.020Z,19.29
2023-04-22T08:37:31.011Z,16.06
2023-04-22T08:38:30.973Z,17.03
2023-04-22T08:39:31.000Z,18.96
2023-04-22T08:40:30.956Z,20.25
2023-04-22T08:41:30.950Z,18.96
2023-04-22T08:42:30.993Z,20.90
2023-04-22T08:43:30.927Z,19.93
2023-04-22T08:44:30.902Z,19.93
2023-04-22T08:45:30.935Z,20.58
2023-04-22T08:46:30.932Z,22.19
2023-04-22T08:47:30.902Z,17.03
2023-04-22T08:48:30.892Z,20.25
2023-04-22T08:49:30.853Z,20.58
2023-04-22T08:50:30.854Z,19.93
2023-04-22T08:51:30.850Z,21.87
2023-04-22T08:52:30.859Z,20.58
2023-04-22T08:53:30.826Z,20.58
2023-04-22T08:54:30.810Z,20.90
2023-04-22T08:55:30.796Z,19.93
2023-04-22T08:56:30.797Z,19.61
2023-04-22T08:57:30.805Z,18.96
2023-04-22T08:58:30.774Z,19.29
2023-04-22T08:59:30.752Z,20.25
2023-04-22T09:00:30.747Z,22.19
2023-04-22T09:01:30.792Z,20.25
2023-04-22T09:02:30.790Z,20.25
2023-04-22T09:03:30.773Z,22.83
2023-04-22T09:04:30.762Z,20.25
2023-04-22T09:05:30.707Z,20.58
2023-04-22T09:06:30.696Z,20.58
2023-04-22T09:07:30.734Z,17.68
2023-04-22T09:08:30.811Z,20.58
2023-04-22T09:09:30.700Z,18.64
2023-04-22T09:10:31.881Z,25.41
2023-04-22T09:11:30.646Z,20.90
2023-04-22T09:12:30.661Z,22.83
2023-04-22T09:13:30.615Z,22.51
2023-04-22T09:14:30.599Z,22.51
2023-04-22T09:15:30.647Z,20.90
2023-04-22T09:16:30.627Z,20.90
2023-04-22T09:17:30.680Z,21.22
2023-04-22T09:18:30.590Z,20.58
2023-04-22T09:19:30.537Z,20.90
2023-04-22T09:20:30.582Z,21.54
2023-04-22T09:21:30.519Z,19.61
2023-04-22T09:22:30.543Z,20.25
2023-04-22T09:23:30.499Z,20.90
2023-04-22T09:24:30.498Z,21.54
2023-04-22T09:25:30.486Z,20.90
2023-04-22T09:26:30.470Z,23.48
2023-04-22T09:27:30.607Z,19.61
2023-04-22T09:28:30.451Z,18.64
2023-04-22T09:29:30.476Z,18.32
2023-04-22T09:30:30.469Z,21.22
2023-04-22T09:31:30.524Z,19.61
2023-04-22T09:32:30.472Z,23.48
2023-04-22T09:33:30.432Z,18.64
2023-04-22T09:34:30.414Z,21.22
2023-04-22T09:35:30.431Z,24.12
2023-04-22T09:36:30.428Z,21.87
2023-04-22T09:37:39.292Z,20.90
2023-04-22T09:38:30.352Z,21.87
2023-04-22T09:39:30.326Z,21.22
2023-04-22T09:40:30.319Z,21.22
2023-04-22T09:41:30.372Z,22.51
2023-04-22T09:42:30.319Z,22.19
2023-04-22T09:43:30.289Z,23.80
2023-04-22T09:44:30.300Z,24.44
2023-04-22T09:45:30.266Z,23.80
2023-04-22T09:46:30.297Z,21.87
2023-04-22T09:47:30.307Z,22.51
2023-04-22T09:48:30.272Z,22.19
2023-04-22T09:49:30.223Z,21.87
2023-04-22T09:50:30.231Z,18.00
2023-04-22T09:51:30.212Z,22.19
2023-04-22T09:52:30.220Z,24.77
2023-04-22T09:53:30.177Z,22.19
2023-04-22T09:54:30.276Z,21.87
2023-04-22T09:55:30.169Z,19.29
2023-04-22T09:56:30.211Z,20.25
2023-04-22T09:57:30.200Z,20.90
2023-04-22T09:58:30.143Z,24.12
2023-04-22T09:59:30.164Z,21.54
2023-04-22T10:00:30.129Z,20.90
2023-04-22T10:01:30.184Z,20.58
2023-04-22T10:02:30.301Z,19.61
2023-04-22T10:03:30.100Z,21.22
2023-04-22T10:04:30.238Z,21.54
2023-04-22T10:05:30.060Z,20.90
2023-04-22T10:06:30.055Z,20.90
2023-04-22T10:07:30.118Z,18.96
2023-04-22T10:08:30.021Z,20.90
2023-04-22T10:09:30.059Z,17.35
2023-04-22T10:10:30.027Z,21.54
2023-04-22T10:11:29.997Z,21.54
2023-04-22T10:12:35.797Z,23.48
2023-04-22T10:13:29.976Z,18.64
2023-04-22T10:14:29.980Z,23.15
2023-04-22T10:15:29.959Z,23.48
2023-04-22T10:16:29.985Z,22.19
2023-04-22T10:17:29.977Z,22.19
2023-04-22T10:18:29.955Z,22.51
2023-04-22T10:19:29.915Z,22.83
2023-04-22T10:20:29.906Z,22.83
2023-04-22T10:21:29.907Z,21.87
2023-04-22T10:22:29.935Z,23.48
2023-04-22T10:23:29.876Z,21.54
2023-04-22T10:24:29.878Z,22.83
2023-04-22T10:25:29.854Z,25.41
2023-04-22T10:26:29.884Z,22.51
2023-04-22T10:27:29.878Z,23.80
2023-04-22T10:28:29.828Z,22.83
2023-04-22T10:29:29.799Z,23.15
2023-04-22T10:30:29.923Z,22.19
2023-04-22T10:31:29.894Z,23.15
2023-04-22T10:32:29.808Z,23.15
2023-04-22T10:33:29.756Z,25.09
2023-04-22T10:34:29.765Z,20.90
2023-04-22T10:35:29.861Z,22.51
2023-04-22T10:36:29.743Z,23.48
2023-04-22T10:37:30.816Z,23.15
2023-04-22T10:38:29.719Z,25.41
2023-04-22T10:39:29.696Z,22.19
2023-04-22T10:40:29.706Z,22.19
2023-04-22T10:41:29.756Z,23.15
2023-04-22T10:42:29.696Z,23.15
2023-04-22T10:43:30.248Z,21.54
2023-04-22T10:44:29.656Z,23.48
2023-04-22T10:45:29.674Z,23.80
2023-04-22T10:46:29.687Z,22.51
2023-04-22T10:47:29.698Z,22.83
2023-04-22T10:48:29.615Z,23.15
2023-04-22T10:49:29.596Z,22.51
2023-04-22T10:50:29.720Z,22.19
2023-04-22T10:51:29.620Z,24.12
2023-04-22T10:52:29.615Z,26.38
2023-04-22T10:53:29.576Z,22.19
2023-04-22T10:54:31.962Z,23.80
2023-04-22T10:55:29.573Z,22.51
2023-04-22T10:56:29.530Z,22.51
2023-04-22T10:57:29.526Z,22.83
2023-04-22T10:58:29.555Z,20.90
2023-04-22T10:59:29.525Z,20.25
2023-04-22T11:00:35.315Z,22.83
2023-04-22T11:01:29.508Z,22.51
2023-04-22T11:02:29.549Z,20.90
2023-04-22T11:03:30.159Z,22.51
2023-04-22T11:04:29.463Z,23.15
2023-04-22T11:05:29.436Z,24.77
2023-04-22T11:06:29.469Z,23.15
2023-04-22T11:07:29.437Z,21.87
2023-04-22T11:08:29.416Z,22.19
2023-04-22T11:09:29.459Z,22.51
2023-04-22T11:10:29.380Z,22.51
2023-04-22T11:11:29.376Z,20.58
2023-04-22T11:12:29.393Z,22.19
2023-04-22T11:13:29.348Z,19.29
2023-04-22T11:14:29.347Z,20.25
2023-04-22T11:15:29.320Z,24.12
2023-04-22T11:16:29.388Z,21.54
2023-04-22T11:17:29.389Z,21.54
2023-04-22T11:18:29.304Z,21.54
2023-04-22T11:19:29.322Z,18.32
2023-04-22T11:20:29.296Z,24.44
2023-04-22T11:21:29.277Z,17.03
2023-04-22T11:22:29.322Z,24.12
2023-04-22T11:23:29.255Z,20.58
2023-04-22T11:24:29.237Z,21.22
2023-04-22T11:25:29.244Z,19.29
2023-04-22T11:26:29.221Z,18.32
2023-04-22T11:27:29.255Z,21.87
2023-04-22T11:28:29.190Z,20.90
2023-04-22T11:29:29.270Z,20.90
2023-04-22T11:30:29.183Z,19.93
2023-04-22T11:31:29.254Z,20.90
2023-04-22T11:32:29.277Z,20.90
2023-04-22T11:33:29.157Z,20.90
2023-04-22T11:34:29.123Z,20.90
2023-04-22T11:35:29.171Z,18.96
2023-04-22T11:36:29.115Z,20.25
2023-04-22T11:37:29.245Z,20.25
2023-04-22T11:38:29.168Z,20.25
2023-04-22T11:39:29.079Z,22.19
2023-04-22T11:40:31.609Z,17.68
2023-04-22T11:41:29.050Z,20.25
2023-04-22T11:42:29.093Z,19.93
2023-04-22T11:43:29.044Z,17.35
2023-04-22T11:44:29.028Z,16.71
2023-04-22T11:45:29.045Z,20.58
2023-04-22T11:46:29.157Z,17.68
2023-04-22T11:47:29.022Z,19.61
2023-04-22T11:48:29.001Z,19.93
2023-04-22T11:49:28.984Z,20.90
2023-04-22T11:50:29.045Z,18.96
2023-04-22T11:51:28.955Z,21.22
2023-04-22T11:52:28.965Z,16.39
2023-04-22T11:53:28.921Z,21.54
2023-04-22T11:54:28.940Z,15.74
2023-04-22T11:55:28.926Z,18.32
2023-04-22T11:56:28.915Z,19.93
2023-04-22T11:57:28.900Z,18.32
2023-04-22T11:58:28.872Z,19.93
2023-04-22T11:59:28.860Z,19.93
2023-04-22T12:00:28.853Z,19.93
2023-04-22T12:01:28.864Z,18.32
2023-04-22T12:02:28.902Z,18.00
2023-04-22T12:03:29.200Z,20.25
2023-04-22T12:04:28.798Z,18.64
2023-04-22T12:05:28.837Z,18.64
2023-04-22T12:06:28.782Z,19.29
2023-04-22T12:07:28.789Z,19.29
2023-04-22T12:08:28.773Z,17.68
2023-04-22T12:09:28.748Z,18.64
2023-04-22T12:10:28.759Z,20.58
2023-04-22T12:11:28.733Z,23.15
2023-04-22T12:12:28.759Z,20.90
2023-04-22T12:13:28.730Z,20.90
2023-04-22T12:14:28.712Z,20.90
2023-04-22T12:15:28.707Z,20.90
2023-04-22T12:16:28.713Z,19.61
2023-04-22T12:17:28.709Z,23.48
2023-04-22T12:18:28.658Z,21.54
2023-04-22T12:19:28.634Z,21.54
2023-04-22T12:20:28.660Z,20.25
2023-04-22T12:21:28.676Z,21.22
2023-04-22T12:22:28.631Z,20.58
2023-04-22T12:23:28.603Z,21.87
2023-04-22T12:24:28.588Z,22.19
2023-04-22T12:25:28.574Z,24.12
2023-04-22T12:26:28.704Z,22.19
2023-04-22T12:27:28.567Z,25.41
2023-04-22T12:28:28.562Z,22.19
2023-04-22T12:29:28.631Z,24.77
2023-04-22T12:30:28.534Z,22.19
2023-04-22T12:31:28.629Z,22.83
2023-04-22T12:32:28.599Z,22.83
2023-04-22T12:33:28.556Z,25.41
2023-04-22T12:34:28.495Z,24.12
2023-04-22T12:35:28.475Z,23.48
2023-04-22T12:36:28.468Z,24.44
2023-04-22T12:37:28.515Z,22.51
2023-04-22T12:38:28.524Z,21.54
2023-04-22T12:39:28.435Z,22.19
2023-04-22T12:40:28.571Z,19.93
2023-04-22T12:41:28.428Z,20.25
2023-04-22T12:42:28.406Z,19.61
2023-04-22T12:43:28.437Z,21.54
2023-04-22T12:44:28.381Z,21.54
2023-04-22T12:45:28.444Z,21.22
2023-04-22T12:46:28.441Z,21.87
2023-04-22T12:47:28.415Z,20.90
2023-04-22T12:48:28.364Z,15.74
2023-04-22T12:49:28.337Z,21.22
2023-04-22T12:50:28.357Z,23.15
2023-04-22T12:51:28.316Z,20.25
2023-04-22T12:52:28.328Z,21.87
2023-04-22T12:53:28.336Z,23.15
2023-04-22T12:54:28.275Z,24.12
2023-04-22T12:55:28.316Z,19.29
2023-04-22T12:56:28.287Z,21.87
2023-04-22T12:57:28.257Z,21.54
2023-04-22T12:58:28.255Z,21.54
2023-04-22T12:59:28.275Z,21.87
2023-04-22T13:00:28.213Z,23.48
2023-04-22T13:01:28.264Z,22.51
2023-04-22T13:02:28.273Z,23.80
2023-04-22T13:03:28.350Z,19.29